sensor_id;sensor_type;location;lat;lon;timestamp;P1;durP1;ratioP1;P2;durP2;ratioP2
75025;SDS011;63591;50.080;8.286;2022-11-20T00:00:28;8.17;;;4.90;;
75025;SDS011;63591;50.080;8.286;2022-11-20T00:02:54;8.77;;;4.90;;
75025;SDS011;63591;50.080;8.286;2022-11-20T00:05:19;8.38;;;5.15;;
75025;SDS011;63591;50.080;8.286;2022-11-20T00:07:45;8.40;;;4.75;;
75025;SDS011;63591;50.080;8.286;2022-11-20T00:10:11;7.28;;;4.53;;
75025;SDS011;63591;50.080;8.286;2022-11-20T00:12:36;7.60;;;4.63;;
75025;SDS011;63591;50.080;8.286;2022-11-20T00:15:02;8.37;;;4.93;;
75025;SDS011;63591;50.080;8.286;2022-11-20T00:17:28;8.30;;;4.78;;
75025;SDS011;63591;50.080;8.286;2022-11-20T00:19:53;7.60;;;4.60;;
75025;SDS011;63591;50.080;8.286;2022-11-20T00:22:19;7.30;;;4.50;;
75025;SDS011;63591;50.080;8.286;2022-11-20T00:24:44;8.43;;;4.83;;
75025;SDS011;63591;50.080;8.286;2022-11-20T00:27:09;7.53;;;4.77;;
75025;SDS011;63591;50.080;8.286;2022-11-20T00:29:34;7.73;;;4.20;;
75025;SDS011;63591;50.080;8.286;2022-11-20T00:32:00;7.60;;;4.57;;
75025;SDS011;63591;50.080;8.286;2022-11-20T00:34:25;7.47;;;4.38;;
75025;SDS011;63591;50.080;8.286;2022-11-20T00:36:50;7.13;;;4.13;;
75025;SDS011;63591;50.080;8.286;2022-11-20T00:39:16;6.97;;;4.10;;
75025;SDS011;63591;50.080;8.286;2022-11-20T00:41:41;7.03;;;4.20;;
75025;SDS011;63591;50.080;8.286;2022-11-20T00:44:06;7.03;;;4.37;;
75025;SDS011;63591;50.080;8.286;2022-11-20T00:46:31;7.00;;;4.20;;
75025;SDS011;63591;50.080;8.286;2022-11-20T00:48:57;7.33;;;4.43;;
75025;SDS011;63591;50.080;8.286;2022-11-20T00:51:23;7.47;;;4.60;;
75025;SDS011;63591;50.080;8.286;2022-11-20T00:53:50;7.10;;;4.35;;
75025;SDS011;63591;50.080;8.286;2022-11-20T00:56:17;7.20;;;4.10;;
75025;SDS011;63591;50.080;8.286;2022-11-20T00:58:44;7.80;;;4.60;;
75025;SDS011;63591;50.080;8.286;2022-11-20T01:03:37;6.53;;;4.25;;
75025;SDS011;63591;50.080;8.286;2022-11-20T01:06:09;7.38;;;4.60;;
75025;SDS011;63591;50.080;8.286;2022-11-20T01:08:36;7.72;;;4.70;;
75025;SDS011;63591;50.080;8.286;2022-11-20T01:11:08;8.55;;;4.82;;
75025;SDS011;63591;50.080;8.286;2022-11-20T01:13:38;8.13;;;4.57;;
75025;SDS011;63591;50.080;8.286;2022-11-20T01:18:37;7.95;;;4.88;;
75025;SDS011;63591;50.080;8.286;2022-11-20T01:21:05;8.00;;;5.00;;
75025;SDS011;63591;50.080;8.286;2022-11-20T01:23:32;7.32;;;4.70;;
75025;SDS011;63591;50.080;8.286;2022-11-20T01:26:00;8.35;;;5.00;;
75025;SDS011;63591;50.080;8.286;2022-11-20T01:28:29;7.63;;;4.85;;
75025;SDS011;63591;50.080;8.286;2022-11-20T01:30:55;8.77;;;4.90;;
75025;SDS011;63591;50.080;8.286;2022-11-20T01:33:21;8.60;;;4.93;;
75025;SDS011;63591;50.080;8.286;2022-11-20T01:35:46;8.50;;;5.10;;
75025;SDS011;63591;50.080;8.286;2022-11-20T01:38:11;8.13;;;4.50;;
75025;SDS011;63591;50.080;8.286;2022-11-20T01:40:37;8.33;;;5.00;;
75025;SDS011;63591;50.080;8.286;2022-11-20T01:43:18;8.37;;;5.30;;
75025;SDS011;63591;50.080;8.286;2022-11-20T01:48:15;8.50;;;4.90;;
75025;SDS011;63591;50.080;8.286;2022-11-20T01:50:42;8.85;;;5.10;;
75025;SDS011;63591;50.080;8.286;2022-11-20T01:53:09;8.95;;;4.85;;
75025;SDS011;63591;50.080;8.286;2022-11-20T01:55:41;8.85;;;5.53;;
75025;SDS011;63591;50.080;8.286;2022-11-20T01:58:13;9.43;;;5.35;;
75025;SDS011;63591;50.080;8.286;2022-11-20T02:00:38;7.90;;;4.70;;
75025;SDS011;63591;50.080;8.286;2022-11-20T02:03:07;9.43;;;5.80;;
75025;SDS011;63591;50.080;8.286;2022-11-20T02:05:37;8.90;;;5.07;;
75025;SDS011;63591;50.080;8.286;2022-11-20T02:08:08;8.65;;;5.28;;
75025;SDS011;63591;50.080;8.286;2022-11-20T02:10:33;8.43;;;5.20;;
75025;SDS011;63591;50.080;8.286;2022-11-20T02:13:00;9.73;;;5.70;;
75025;SDS011;63591;50.080;8.286;2022-11-20T02:15:44;9.15;;;5.57;;
75025;SDS011;63591;50.080;8.286;2022-11-20T02:18:10;8.68;;;5.45;;
75025;SDS011;63591;50.080;8.286;2022-11-20T02:20:38;9.27;;;5.93;;
75025;SDS011;63591;50.080;8.286;2022-11-20T02:25:46;9.73;;;5.65;;
75025;SDS011;63591;50.080;8.286;2022-11-20T02:28:12;9.05;;;5.70;;
75025;SDS011;63591;50.080;8.286;2022-11-20T02:30:39;9.70;;;5.45;;
75025;SDS011;63591;50.080;8.286;2022-11-20T02:33:04;10.47;;;5.50;;
75025;SDS011;63591;50.080;8.286;2022-11-20T02:37:55;8.98;;;5.43;;
75025;SDS011;63591;50.080;8.286;2022-11-20T02:40:22;9.45;;;5.50;;
75025;SDS011;63591;50.080;8.286;2022-11-20T02:42:51;9.25;;;5.57;;
75025;SDS011;63591;50.080;8.286;2022-11-20T02:45:17;9.00;;;5.27;;
75025;SDS011;63591;50.080;8.286;2022-11-20T02:47:43;9.95;;;5.72;;
75025;SDS011;63591;50.080;8.286;2022-11-20T02:50:08;9.80;;;5.97;;
75025;SDS011;63591;50.080;8.286;2022-11-20T02:52:33;9.73;;;5.77;;
75025;SDS011;63591;50.080;8.286;2022-11-20T02:54:59;9.17;;;5.67;;
75025;SDS011;63591;50.080;8.286;2022-11-20T02:57:24;10.20;;;5.60;;
75025;SDS011;63591;50.080;8.286;2022-11-20T02:59:49;10.57;;;6.03;;
75025;SDS011;63591;50.080;8.286;2022-11-20T03:02:15;10.50;;;6.07;;
75025;SDS011;63591;50.080;8.286;2022-11-20T03:04:40;10.23;;;6.00;;
75025;SDS011;63591;50.080;8.286;2022-11-20T03:07:05;9.95;;;6.18;;
75025;SDS011;63591;50.080;8.286;2022-11-20T03:09:32;9.90;;;6.07;;
75025;SDS011;63591;50.080;8.286;2022-11-20T03:11:58;9.55;;;5.90;;
75025;SDS011;63591;50.080;8.286;2022-11-20T03:14:23;10.23;;;6.30;;
75025;SDS011;63591;50.080;8.286;2022-11-20T03:16:48;9.93;;;5.90;;
75025;SDS011;63591;50.080;8.286;2022-11-20T03:19:13;9.67;;;6.07;;
75025;SDS011;63591;50.080;8.286;2022-11-20T03:21:39;10.27;;;6.27;;
75025;SDS011;63591;50.080;8.286;2022-11-20T03:24:04;9.90;;;6.07;;
75025;SDS011;63591;50.080;8.286;2022-11-20T03:26:30;12.23;;;6.75;;
75025;SDS011;63591;50.080;8.286;2022-11-20T03:28:59;10.90;;;6.10;;
75025;SDS011;63591;50.080;8.286;2022-11-20T03:31:28;10.38;;;6.28;;
75025;SDS011;63591;50.080;8.286;2022-11-20T03:33:56;10.15;;;6.35;;
75025;SDS011;63591;50.080;8.286;2022-11-20T03:36:22;10.47;;;6.13;;
75025;SDS011;63591;50.080;8.286;2022-11-20T03:38:48;9.75;;;6.07;;
75025;SDS011;63591;50.080;8.286;2022-11-20T03:41:14;10.10;;;6.13;;
75025;SDS011;63591;50.080;8.286;2022-11-20T03:43:42;10.55;;;6.18;;
75025;SDS011;63591;50.080;8.286;2022-11-20T03:46:11;9.52;;;6.18;;
75025;SDS011;63591;50.080;8.286;2022-11-20T03:48:36;10.23;;;6.03;;
75025;SDS011;63591;50.080;8.286;2022-11-20T03:51:12;10.37;;;6.50;;
75025;SDS011;63591;50.080;8.286;2022-11-20T03:53:42;10.45;;;6.03;;
75025;SDS011;63591;50.080;8.286;2022-11-20T03:56:09;10.88;;;6.10;;
75025;SDS011;63591;50.080;8.286;2022-11-20T03:58:36;10.68;;;6.43;;
75025;SDS011;63591;50.080;8.286;2022-11-20T04:01:08;9.50;;;5.93;;
75025;SDS011;63591;50.080;8.286;2022-11-20T04:03:38;9.65;;;5.95;;
75025;SDS011;63591;50.080;8.286;2022-11-20T04:06:05;10.88;;;6.60;;
75025;SDS011;63591;50.080;8.286;2022-11-20T04:08:32;10.40;;;6.05;;
75025;SDS011;63591;50.080;8.286;2022-11-20T04:11:07;10.17;;;6.13;;
75025;SDS011;63591;50.080;8.286;2022-11-20T04:13:34;10.90;;;6.38;;
75025;SDS011;63591;50.080;8.286;2022-11-20T04:15:59;10.53;;;6.63;;
75025;SDS011;63591;50.080;8.286;2022-11-20T04:18:24;10.83;;;6.07;;
75025;SDS011;63591;50.080;8.286;2022-11-20T04:20:50;10.07;;;6.07;;
75025;SDS011;63591;50.080;8.286;2022-11-20T04:23:15;9.97;;;6.13;;
75025;SDS011;63591;50.080;8.286;2022-11-20T04:25:40;10.77;;;6.80;;
75025;SDS011;63591;50.080;8.286;2022-11-20T04:28:05;10.47;;;6.13;;
75025;SDS011;63591;50.080;8.286;2022-11-20T04:30:31;11.03;;;6.03;;
75025;SDS011;63591;50.080;8.286;2022-11-20T04:32:56;9.67;;;6.07;;
75025;SDS011;63591;50.080;8.286;2022-11-20T04:35:21;10.77;;;5.80;;
75025;SDS011;63591;50.080;8.286;2022-11-20T04:37:47;9.83;;;6.00;;
75025;SDS011;63591;50.080;8.286;2022-11-20T04:40:12;10.53;;;5.90;;
75025;SDS011;63591;50.080;8.286;2022-11-20T04:42:37;11.03;;;6.67;;
75025;SDS011;63591;50.080;8.286;2022-11-20T04:45:03;10.80;;;6.30;;
75025;SDS011;63591;50.080;8.286;2022-11-20T04:47:28;12.07;;;6.75;;
75025;SDS011;63591;50.080;8.286;2022-11-20T04:49:53;10.33;;;6.33;;
75025;SDS011;63591;50.080;8.286;2022-11-20T04:52:19;10.43;;;6.47;;
75025;SDS011;63591;50.080;8.286;2022-11-20T04:54:44;9.50;;;5.87;;
75025;SDS011;63591;50.080;8.286;2022-11-20T04:57:10;10.67;;;6.40;;
75025;SDS011;63591;50.080;8.286;2022-11-20T04:59:35;9.97;;;6.37;;
75025;SDS011;63591;50.080;8.286;2022-11-20T05:02:00;11.25;;;6.40;;
75025;SDS011;63591;50.080;8.286;2022-11-20T05:04:25;10.83;;;6.70;;
75025;SDS011;63591;50.080;8.286;2022-11-20T05:06:51;10.10;;;6.27;;
75025;SDS011;63591;50.080;8.286;2022-11-20T05:09:16;10.33;;;6.63;;
75025;SDS011;63591;50.080;8.286;2022-11-20T05:11:41;10.50;;;6.10;;
75025;SDS011;63591;50.080;8.286;2022-11-20T05:14:07;10.90;;;6.50;;
75025;SDS011;63591;50.080;8.286;2022-11-20T05:16:33;11.47;;;6.40;;
75025;SDS011;63591;50.080;8.286;2022-11-20T05:18:59;11.13;;;6.47;;
75025;SDS011;63591;50.080;8.286;2022-11-20T05:21:24;10.73;;;6.57;;
75025;SDS011;63591;50.080;8.286;2022-11-20T05:23:50;10.52;;;6.47;;
75025;SDS011;63591;50.080;8.286;2022-11-20T05:26:16;10.65;;;6.50;;
75025;SDS011;63591;50.080;8.286;2022-11-20T05:28:43;10.57;;;6.27;;
75025;SDS011;63591;50.080;8.286;2022-11-20T05:31:10;9.98;;;5.88;;
75025;SDS011;63591;50.080;8.286;2022-11-20T05:33:38;10.40;;;6.55;;
75025;SDS011;63591;50.080;8.286;2022-11-20T05:36:05;10.73;;;6.38;;
75025;SDS011;63591;50.080;8.286;2022-11-20T05:38:31;12.87;;;6.83;;
75025;SDS011;63591;50.080;8.286;2022-11-20T05:41:02;11.23;;;6.70;;
75025;SDS011;63591;50.080;8.286;2022-11-20T05:43:34;10.95;;;6.18;;
75025;SDS011;63591;50.080;8.286;2022-11-20T05:46:02;11.65;;;6.57;;
75025;SDS011;63591;50.080;8.286;2022-11-20T05:48:28;12.35;;;6.68;;
75025;SDS011;63591;50.080;8.286;2022-11-20T05:50:53;11.30;;;6.40;;
75025;SDS011;63591;50.080;8.286;2022-11-20T05:53:19;11.57;;;6.90;;
75025;SDS011;63591;50.080;8.286;2022-11-20T05:55:44;11.88;;;7.10;;
75025;SDS011;63591;50.080;8.286;2022-11-20T05:58:09;11.60;;;6.57;;
75025;SDS011;63591;50.080;8.286;2022-11-20T06:00:35;11.13;;;6.60;;
75025;SDS011;63591;50.080;8.286;2022-11-20T06:03:00;11.47;;;7.37;;
75025;SDS011;63591;50.080;8.286;2022-11-20T06:05:26;11.65;;;6.72;;
75025;SDS011;63591;50.080;8.286;2022-11-20T06:07:51;11.93;;;6.83;;
75025;SDS011;63591;50.080;8.286;2022-11-20T06:10:17;12.30;;;6.77;;
75025;SDS011;63591;50.080;8.286;2022-11-20T06:12:45;13.30;;;6.90;;
75025;SDS011;63591;50.080;8.286;2022-11-20T06:15:10;12.43;;;6.85;;
75025;SDS011;63591;50.080;8.286;2022-11-20T06:17:35;12.20;;;6.90;;
75025;SDS011;63591;50.080;8.286;2022-11-20T06:20:01;11.33;;;6.73;;
75025;SDS011;63591;50.080;8.286;2022-11-20T06:22:26;11.90;;;6.90;;
75025;SDS011;63591;50.080;8.286;2022-11-20T06:24:52;12.20;;;7.30;;
75025;SDS011;63591;50.080;8.286;2022-11-20T06:27:17;12.63;;;7.53;;
75025;SDS011;63591;50.080;8.286;2022-11-20T06:29:42;11.90;;;6.80;;
75025;SDS011;63591;50.080;8.286;2022-11-20T06:32:08;12.27;;;7.00;;
75025;SDS011;63591;50.080;8.286;2022-11-20T06:34:33;12.43;;;7.30;;
75025;SDS011;63591;50.080;8.286;2022-11-20T06:36:58;12.60;;;6.80;;
75025;SDS011;63591;50.080;8.286;2022-11-20T06:39:24;11.10;;;6.20;;
75025;SDS011;63591;50.080;8.286;2022-11-20T06:41:49;12.20;;;6.90;;
75025;SDS011;63591;50.080;8.286;2022-11-20T06:44:14;11.10;;;6.97;;
75025;SDS011;63591;50.080;8.286;2022-11-20T06:46:39;11.97;;;7.00;;
75025;SDS011;63591;50.080;8.286;2022-11-20T06:49:05;12.67;;;7.30;;
75025;SDS011;63591;50.080;8.286;2022-11-20T06:51:30;12.85;;;6.95;;
75025;SDS011;63591;50.080;8.286;2022-11-20T06:53:56;12.60;;;7.00;;
75025;SDS011;63591;50.080;8.286;2022-11-20T06:56:21;12.93;;;6.87;;
75025;SDS011;63591;50.080;8.286;2022-11-20T06:58:46;12.93;;;7.30;;
75025;SDS011;63591;50.080;8.286;2022-11-20T07:01:13;13.93;;;7.30;;
75025;SDS011;63591;50.080;8.286;2022-11-20T07:03:39;12.07;;;6.88;;
75025;SDS011;63591;50.080;8.286;2022-11-20T07:06:05;12.75;;;7.15;;
75025;SDS011;63591;50.080;8.286;2022-11-20T07:08:31;14.40;;;7.47;;
75025;SDS011;63591;50.080;8.286;2022-11-20T07:10:57;12.63;;;7.22;;
75025;SDS011;63591;50.080;8.286;2022-11-20T07:13:23;13.27;;;7.07;;
75025;SDS011;63591;50.080;8.286;2022-11-20T07:15:49;12.37;;;6.57;;
75025;SDS011;63591;50.080;8.286;2022-11-20T07:18:14;13.30;;;7.57;;
75025;SDS011;63591;50.080;8.286;2022-11-20T07:20:39;14.23;;;7.87;;
75025;SDS011;63591;50.080;8.286;2022-11-20T07:23:05;19.33;;;8.80;;
75025;SDS011;63591;50.080;8.286;2022-11-20T07:25:30;17.10;;;8.60;;
75025;SDS011;63591;50.080;8.286;2022-11-20T07:27:59;14.80;;;8.30;;
75025;SDS011;63591;50.080;8.286;2022-11-20T07:30:25;17.13;;;8.90;;
75025;SDS011;63591;50.080;8.286;2022-11-20T07:32:51;15.88;;;8.30;;
75025;SDS011;63591;50.080;8.286;2022-11-20T07:35:18;15.77;;;8.65;;
75025;SDS011;63591;50.080;8.286;2022-11-20T07:37:43;16.50;;;8.30;;
75025;SDS011;63591;50.080;8.286;2022-11-20T07:40:10;15.52;;;8.38;;
75025;SDS011;63591;50.080;8.286;2022-11-20T07:42:50;16.23;;;8.90;;
75025;SDS011;63591;50.080;8.286;2022-11-20T07:45:19;15.70;;;8.45;;
75025;SDS011;63591;50.080;8.286;2022-11-20T07:47:46;14.10;;;8.38;;
75025;SDS011;63591;50.080;8.286;2022-11-20T07:50:11;14.97;;;8.17;;
75025;SDS011;63591;50.080;8.286;2022-11-20T07:52:38;17.45;;;9.13;;
75025;SDS011;63591;50.080;8.286;2022-11-20T07:55:03;17.97;;;9.20;;
75025;SDS011;63591;50.080;8.286;2022-11-20T07:57:29;17.63;;;8.80;;
75025;SDS011;63591;50.080;8.286;2022-11-20T07:59:54;17.53;;;9.50;;
75025;SDS011;63591;50.080;8.286;2022-11-20T08:02:19;19.30;;;9.68;;
75025;SDS011;63591;50.080;8.286;2022-11-20T08:04:45;17.10;;;9.03;;
75025;SDS011;63591;50.080;8.286;2022-11-20T08:07:10;18.30;;;9.60;;
75025;SDS011;63591;50.080;8.286;2022-11-20T08:09:35;18.10;;;9.80;;
75025;SDS011;63591;50.080;8.286;2022-11-20T08:12:01;20.47;;;10.17;;
75025;SDS011;63591;50.080;8.286;2022-11-20T08:14:45;18.52;;;9.95;;
75025;SDS011;63591;50.080;8.286;2022-11-20T08:17:10;20.40;;;11.03;;
75025;SDS011;63591;50.080;8.286;2022-11-20T08:19:35;20.93;;;10.40;;
75025;SDS011;63591;50.080;8.286;2022-11-20T08:22:01;20.27;;;10.53;;
75025;SDS011;63591;50.080;8.286;2022-11-20T08:24:26;19.92;;;10.60;;
75025;SDS011;63591;50.080;8.286;2022-11-20T08:26:52;19.77;;;10.32;;
75025;SDS011;63591;50.080;8.286;2022-11-20T08:29:17;19.83;;;10.97;;
75025;SDS011;63591;50.080;8.286;2022-11-20T08:31:43;19.50;;;10.48;;
75025;SDS011;63591;50.080;8.286;2022-11-20T08:34:08;20.43;;;11.33;;
75025;SDS011;63591;50.080;8.286;2022-11-20T08:36:34;18.93;;;10.50;;
75025;SDS011;63591;50.080;8.286;2022-11-20T08:39:00;19.85;;;10.93;;
75025;SDS011;63591;50.080;8.286;2022-11-20T08:41:25;18.67;;;10.30;;
75025;SDS011;63591;50.080;8.286;2022-11-20T08:43:53;19.27;;;10.73;;
75025;SDS011;63591;50.080;8.286;2022-11-20T08:46:27;21.13;;;10.20;;
75025;SDS011;63591;50.080;8.286;2022-11-20T08:48:57;19.75;;;10.80;;
75025;SDS011;63591;50.080;8.286;2022-11-20T08:51:23;18.83;;;10.83;;
75025;SDS011;63591;50.080;8.286;2022-11-20T08:53:48;17.43;;;10.37;;
75025;SDS011;63591;50.080;8.286;2022-11-20T08:56:14;20.03;;;10.77;;
75025;SDS011;63591;50.080;8.286;2022-11-20T08:58:39;18.57;;;10.13;;
75025;SDS011;63591;50.080;8.286;2022-11-20T09:01:05;20.10;;;10.50;;
75025;SDS011;63591;50.080;8.286;2022-11-20T09:03:31;19.23;;;11.18;;
75025;SDS011;63591;50.080;8.286;2022-11-20T09:05:59;18.03;;;9.87;;
75025;SDS011;63591;50.080;8.286;2022-11-20T09:08:26;19.13;;;10.70;;
75025;SDS011;63591;50.080;8.286;2022-11-20T09:10:52;19.50;;;10.73;;
75025;SDS011;63591;50.080;8.286;2022-11-20T09:13:19;19.17;;;10.90;;
75025;SDS011;63591;50.080;8.286;2022-11-20T09:15:45;18.35;;;10.52;;
75025;SDS011;63591;50.080;8.286;2022-11-20T09:18:10;19.27;;;10.67;;
75025;SDS011;63591;50.080;8.286;2022-11-20T09:20:36;19.27;;;10.57;;
75025;SDS011;63591;50.080;8.286;2022-11-20T09:23:01;20.88;;;10.63;;
75025;SDS011;63591;50.080;8.286;2022-11-20T09:25:27;20.30;;;10.83;;
75025;SDS011;63591;50.080;8.286;2022-11-20T09:27:57;17.52;;;10.35;;
75025;SDS011;63591;50.080;8.286;2022-11-20T09:30:23;19.48;;;10.65;;
75025;SDS011;63591;50.080;8.286;2022-11-20T09:32:52;19.70;;;11.23;;
75025;SDS011;63591;50.080;8.286;2022-11-20T09:35:17;19.73;;;11.52;;
75025;SDS011;63591;50.080;8.286;2022-11-20T09:37:43;20.33;;;11.35;;
75025;SDS011;63591;50.080;8.286;2022-11-20T09:40:25;19.50;;;11.00;;
75025;SDS011;63591;50.080;8.286;2022-11-20T09:53:51;18.00;;;10.80;;
75025;SDS011;63591;50.080;8.286;2022-11-20T09:56:39;18.30;;;10.43;;
75025;SDS011;63591;50.080;8.286;2022-11-20T09:59:07;18.05;;;10.00;;
75025;SDS011;63591;50.080;8.286;2022-11-20T10:01:42;17.20;;;10.00;;
75025;SDS011;63591;50.080;8.286;2022-11-20T10:04:10;17.33;;;9.52;;
75025;SDS011;63591;50.080;8.286;2022-11-20T10:09:27;18.10;;;10.38;;
75025;SDS011;63591;50.080;8.286;2022-11-20T10:17:46;16.15;;;8.90;;
75025;SDS011;63591;50.080;8.286;2022-11-20T10:20:23;15.85;;;8.98;;
75025;SDS011;63591;50.080;8.286;2022-11-20T10:28:48;15.75;;;9.40;;
75025;SDS011;63591;50.080;8.286;2022-11-20T10:31:31;16.20;;;8.23;;
75025;SDS011;63591;50.080;8.286;2022-11-20T10:34:00;17.83;;;9.20;;
75025;SDS011;63591;50.080;8.286;2022-11-20T10:36:33;14.02;;;8.43;;
75025;SDS011;63591;50.080;8.286;2022-11-20T10:41:53;15.38;;;8.90;;
75025;SDS011;63591;50.080;8.286;2022-11-20T10:44:20;15.10;;;8.60;;
75025;SDS011;63591;50.080;8.286;2022-11-20T10:47:08;14.82;;;8.23;;
75025;SDS011;63591;50.080;8.286;2022-11-20T10:49:38;15.03;;;8.80;;
75025;SDS011;63591;50.080;8.286;2022-11-20T10:52:07;15.00;;;8.27;;
75025;SDS011;63591;50.080;8.286;2022-11-20T10:54:37;15.45;;;8.20;;
75025;SDS011;63591;50.080;8.286;2022-11-20T11:00:06;14.48;;;8.00;;
75025;SDS011;63591;50.080;8.286;2022-11-20T11:02:43;15.15;;;8.75;;
75025;SDS011;63591;50.080;8.286;2022-11-20T11:07:49;14.57;;;8.50;;
75025;SDS011;63591;50.080;8.286;2022-11-20T11:10:18;14.57;;;8.13;;
75025;SDS011;63591;50.080;8.286;2022-11-20T11:12:57;13.57;;;7.95;;
75025;SDS011;63591;50.080;8.286;2022-11-20T11:15:27;15.97;;;9.00;;
75025;SDS011;63591;50.080;8.286;2022-11-20T11:18:03;16.35;;;9.13;;
75025;SDS011;63591;50.080;8.286;2022-11-20T11:20:28;14.37;;;8.90;;
75025;SDS011;63591;50.080;8.286;2022-11-20T11:22:55;15.33;;;9.20;;
75025;SDS011;63591;50.080;8.286;2022-11-20T11:25:23;16.08;;;9.35;;
75025;SDS011;63591;50.080;8.286;2022-11-20T11:27:54;15.80;;;9.07;;
75025;SDS011;63591;50.080;8.286;2022-11-20T11:30:22;14.95;;;8.73;;
75025;SDS011;63591;50.080;8.286;2022-11-20T11:32:48;15.13;;;8.85;;
75025;SDS011;63591;50.080;8.286;2022-11-20T11:35:32;14.47;;;8.93;;
75025;SDS011;63591;50.080;8.286;2022-11-20T11:38:05;15.65;;;8.80;;
75025;SDS011;63591;50.080;8.286;2022-11-20T11:40:33;15.50;;;8.90;;
75025;SDS011;63591;50.080;8.286;2022-11-20T11:43:01;15.80;;;9.18;;
75025;SDS011;63591;50.080;8.286;2022-11-20T11:45:30;16.25;;;9.48;;
75025;SDS011;63591;50.080;8.286;2022-11-20T11:47:56;16.00;;;9.23;;
75025;SDS011;63591;50.080;8.286;2022-11-20T11:50:24;16.73;;;9.73;;
75025;SDS011;63591;50.080;8.286;2022-11-20T11:52:54;17.27;;;9.18;;
75025;SDS011;63591;50.080;8.286;2022-11-20T11:55:27;16.48;;;9.30;;
75025;SDS011;63591;50.080;8.286;2022-11-20T11:58:02;18.38;;;9.73;;
75025;SDS011;63591;50.080;8.286;2022-11-20T12:00:36;16.35;;;9.45;;
75025;SDS011;63591;50.080;8.286;2022-11-20T12:03:14;15.63;;;8.63;;
75025;SDS011;63591;50.080;8.286;2022-11-20T12:05:46;16.85;;;9.70;;
75025;SDS011;63591;50.080;8.286;2022-11-20T12:08:29;17.08;;;9.68;;
75025;SDS011;63591;50.080;8.286;2022-11-20T12:11:14;16.02;;;8.75;;
75025;SDS011;63591;50.080;8.286;2022-11-20T12:13:53;16.30;;;9.40;;
75025;SDS011;63591;50.080;8.286;2022-11-20T12:16:23;16.60;;;9.35;;
75025;SDS011;63591;50.080;8.286;2022-11-20T12:18:50;15.02;;;9.15;;
75025;SDS011;63591;50.080;8.286;2022-11-20T12:21:21;15.50;;;9.35;;
75025;SDS011;63591;50.080;8.286;2022-11-20T12:24:06;15.60;;;8.98;;
75025;SDS011;63591;50.080;8.286;2022-11-20T12:29:48;15.20;;;9.27;;
75025;SDS011;63591;50.080;8.286;2022-11-20T12:35:16;16.67;;;9.48;;
75025;SDS011;63591;50.080;8.286;2022-11-20T12:37:48;16.63;;;9.57;;
75025;SDS011;63591;50.080;8.286;2022-11-20T12:40:20;16.05;;;9.32;;
75025;SDS011;63591;50.080;8.286;2022-11-20T12:45:54;16.92;;;9.88;;
75025;SDS011;63591;50.080;8.286;2022-11-20T12:54:33;15.52;;;9.20;;
75025;SDS011;63591;50.080;8.286;2022-11-20T12:57:25;17.58;;;9.65;;
75025;SDS011;63591;50.080;8.286;2022-11-20T13:00:20;15.70;;;9.13;;
75025;SDS011;63591;50.080;8.286;2022-11-20T13:08:26;16.47;;;9.50;;
75025;SDS011;63591;50.080;8.286;2022-11-20T13:11:15;16.30;;;9.50;;
75025;SDS011;63591;50.080;8.286;2022-11-20T13:20:01;16.55;;;9.38;;
75025;SDS011;63591;50.080;8.286;2022-11-20T13:22:28;15.70;;;9.15;;
75025;SDS011;63591;50.080;8.286;2022-11-20T13:25:10;15.77;;;9.50;;
75025;SDS011;63591;50.080;8.286;2022-11-20T13:27:56;17.08;;;9.75;;
75025;SDS011;63591;50.080;8.286;2022-11-20T13:30:28;18.20;;;9.65;;
75025;SDS011;63591;50.080;8.286;2022-11-20T13:33:07;17.80;;;9.50;;
75025;SDS011;63591;50.080;8.286;2022-11-20T13:35:54;17.15;;;9.77;;
75025;SDS011;63591;50.080;8.286;2022-11-20T13:38:40;16.30;;;9.38;;
75025;SDS011;63591;50.080;8.286;2022-11-20T13:41:09;16.65;;;9.68;;
75025;SDS011;63591;50.080;8.286;2022-11-20T13:43:52;14.98;;;9.07;;
75025;SDS011;63591;50.080;8.286;2022-11-20T13:46:22;17.30;;;9.43;;
75025;SDS011;63591;50.080;8.286;2022-11-20T13:48:50;17.33;;;9.95;;
75025;SDS011;63591;50.080;8.286;2022-11-20T13:54:00;17.20;;;9.20;;
75025;SDS011;63591;50.080;8.286;2022-11-20T13:56:43;16.08;;;9.40;;
75025;SDS011;63591;50.080;8.286;2022-11-20T13:59:47;16.38;;;9.00;;
75025;SDS011;63591;50.080;8.286;2022-11-20T14:02:19;14.90;;;8.77;;
75025;SDS011;63591;50.080;8.286;2022-11-20T14:04:48;17.02;;;9.45;;
75025;SDS011;63591;50.080;8.286;2022-11-20T14:07:19;15.25;;;8.75;;
75025;SDS011;63591;50.080;8.286;2022-11-20T14:09:54;15.10;;;9.07;;
75025;SDS011;63591;50.080;8.286;2022-11-20T14:12:23;15.43;;;8.95;;
75025;SDS011;63591;50.080;8.286;2022-11-20T14:14:53;16.17;;;9.18;;
75025;SDS011;63591;50.080;8.286;2022-11-20T14:17:23;15.45;;;8.77;;
75025;SDS011;63591;50.080;8.286;2022-11-20T14:19:54;15.27;;;8.52;;
75025;SDS011;63591;50.080;8.286;2022-11-20T14:22:26;15.30;;;8.48;;
75025;SDS011;63591;50.080;8.286;2022-11-20T14:25:02;15.70;;;8.50;;
75025;SDS011;63591;50.080;8.286;2022-11-20T14:27:32;16.90;;;9.35;;
75025;SDS011;63591;50.080;8.286;2022-11-20T14:30:01;15.27;;;8.85;;
75025;SDS011;63591;50.080;8.286;2022-11-20T14:32:28;14.68;;;8.70;;
75025;SDS011;63591;50.080;8.286;2022-11-20T14:34:55;15.00;;;8.68;;
75025;SDS011;63591;50.080;8.286;2022-11-20T14:37:27;15.38;;;9.07;;
75025;SDS011;63591;50.080;8.286;2022-11-20T14:39:58;15.18;;;8.43;;
75025;SDS011;63591;50.080;8.286;2022-11-20T14:42:27;14.00;;;8.27;;
75025;SDS011;63591;50.080;8.286;2022-11-20T14:44:57;14.32;;;8.50;;
75025;SDS011;63591;50.080;8.286;2022-11-20T14:47:25;14.90;;;8.63;;
75025;SDS011;63591;50.080;8.286;2022-11-20T14:49:53;15.38;;;8.60;;
75025;SDS011;63591;50.080;8.286;2022-11-20T14:52:20;15.55;;;8.90;;
75025;SDS011;63591;50.080;8.286;2022-11-20T14:54:49;14.38;;;8.38;;
75025;SDS011;63591;50.080;8.286;2022-11-20T14:57:23;14.60;;;8.75;;
75025;SDS011;63591;50.080;8.286;2022-11-20T15:00:03;13.10;;;7.87;;
75025;SDS011;63591;50.080;8.286;2022-11-20T15:02:29;14.38;;;8.40;;
75025;SDS011;63591;50.080;8.286;2022-11-20T15:04:59;12.52;;;7.65;;
75025;SDS011;63591;50.080;8.286;2022-11-20T15:07:32;13.77;;;7.88;;
75025;SDS011;63591;50.080;8.286;2022-11-20T15:10:03;14.07;;;8.00;;
75025;SDS011;63591;50.080;8.286;2022-11-20T15:12:32;13.93;;;7.63;;
75025;SDS011;63591;50.080;8.286;2022-11-20T15:15:00;13.70;;;8.30;;
75025;SDS011;63591;50.080;8.286;2022-11-20T15:17:26;12.60;;;7.57;;
75025;SDS011;63591;50.080;8.286;2022-11-20T15:19:52;12.50;;;7.37;;
75025;SDS011;63591;50.080;8.286;2022-11-20T15:22:18;12.23;;;7.63;;
75025;SDS011;63591;50.080;8.286;2022-11-20T15:24:44;14.07;;;8.43;;
75025;SDS011;63591;50.080;8.286;2022-11-20T15:27:10;12.57;;;7.53;;
75025;SDS011;63591;50.080;8.286;2022-11-20T15:29:35;13.03;;;7.97;;
75025;SDS011;63591;50.080;8.286;2022-11-20T15:32:01;12.97;;;7.70;;
75025;SDS011;63591;50.080;8.286;2022-11-20T15:34:26;13.45;;;7.60;;
75025;SDS011;63591;50.080;8.286;2022-11-20T15:36:52;12.30;;;7.40;;
75025;SDS011;63591;50.080;8.286;2022-11-20T15:39:19;12.25;;;7.40;;
75025;SDS011;63591;50.080;8.286;2022-11-20T15:41:45;12.15;;;7.15;;
75025;SDS011;63591;50.080;8.286;2022-11-20T15:44:11;13.73;;;7.78;;
75025;SDS011;63591;50.080;8.286;2022-11-20T15:46:39;12.80;;;7.82;;
75025;SDS011;63591;50.080;8.286;2022-11-20T15:49:11;12.27;;;7.57;;
75025;SDS011;63591;50.080;8.286;2022-11-20T15:51:48;13.52;;;7.97;;
75025;SDS011;63591;50.080;8.286;2022-11-20T15:54:21;13.57;;;8.20;;
75025;SDS011;63591;50.080;8.286;2022-11-20T15:56:49;13.00;;;7.57;;
75025;SDS011;63591;50.080;8.286;2022-11-20T15:59:19;11.63;;;7.60;;